This is the latest recevied weather packets stored in our database for station/object K5GHS-1. If no packets are shown the sender has not sent any weather packets the latest 10 day(s).
| Time | Temp. | Humidity | Pressure | Rain* | Wind** | Luminosity | Snow |
|---|---|---|---|---|---|---|---|
| 1777728280 | 15.56° C | 66% | 1019.8 hPa | 0 mm | - | 122 W/m² | - |
| 1777727978 | 15° C | 69% | 1019.5 hPa | 0 mm | - | 115 W/m² | - |
| 1777727674 | 14.44° C | 76% | 1019.6 hPa | 0 mm | - | 113 W/m² | - |
| 1777727371 | 13.33° C | 82% | 1019.3 hPa | 0 mm | - | 103 W/m² | - |
| 1777726766 | 11.11° C | 88% | 1019.3 hPa | 0 mm | - | 71 W/m² | - |
| 1777726160 | 10° C | 90% | 1019 hPa | 0 mm | - | 29 W/m² | - |
| 1777725554 | 10° C | 92% | 1018.7 hPa | 0 mm | - | 22 W/m² | - |
| 1777725251 | 9.44° C | 92% | 1018.9 hPa | 0 mm | - | 20 W/m² | - |
| 1777724948 | 9.44° C | 92% | 1018.9 hPa | 0 mm | - | 19 W/m² | - |
| 1777724343 | 8.89° C | 92% | 1018.5 hPa | 0 mm | - | 15 W/m² | - |
| 1777724039 | 8.89° C | 92% | 1018.8 hPa | 0 mm | - | 13 W/m² | - |
| 1777723737 | 8.89° C | 92% | 1018.5 hPa | 0 mm | - | 11 W/m² | - |
| 1777723433 | 8.89° C | 92% | 1018.6 hPa | 0 mm | - | 9 W/m² | - |
| 1777723130 | 8.89° C | 92% | 1018.4 hPa | 0 mm | - | 6 W/m² | - |
| 1777722523 | 8.89° C | 92% | 1018.2 hPa | 0 mm | - | 3 W/m² | - |
| 1777722221 | 8.89° C | 92% | 1017.9 hPa | 0 mm | - | 2 W/m² | - |
| 1777721918 | 8.89° C | 92% | 1017.9 hPa | 0 mm | - | 0 W/m² | - |
| 1777721615 | 8.89° C | 92% | 1017.7 hPa | 0 mm | - | 0 W/m² | - |
| 1777721313 | 9.44° C | 92% | 1017.8 hPa | 0 mm | - | 0 W/m² | - |
| 1777721010 | 9.44° C | 91% | 1017.8 hPa | 0 mm | - | 0 W/m² | - |
| 1777720708 | 9.44° C | 91% | 1017.7 hPa | 0 mm | - | 0 W/m² | - |
| 1777720405 | 9.44° C | 91% | 1017.7 hPa | 0 mm | - | 0 W/m² | - |
| 1777720103 | 10° C | 91% | 1017.8 hPa | 0 mm | - | 0 W/m² | - |
| 1777719801 | 10° C | 91% | 1017.7 hPa | 0 mm | - | 0 W/m² | - |
| 1777719498 | 10° C | 91% | 1017.7 hPa | 0 mm | - | 0 W/m² | - |
* Rain latest hour (hover to see other rain measurements)
** Current wind speed in m/s (hover to see current wind gust speed)